Time;durP1;ratioP1;P1;durP2;ratioP2;P2;SDS_P1;SDS_P2;PMS_P1;PMS_P2;Temp;Humidity;BMP_temperature;BMP_pressure;BME280_temperature;BME280_humidity;BME280_pressure;Samples;Min_cycle;Max_cycle;Signal;HPM_P1;HPM_P2
2022/11/07 00:01:58;;;;;;;7.68;3.60;;;;;;;12.89;72.88;100603.19;5031535;28;20040;-68
2022/11/07 00:04:27;;;;;;;7.20;3.85;;;;;;;13.07;73.10;100600.63;5032857;28;20067;-68
2022/11/07 00:06:53;;;;;;;6.28;3.22;;;;;;;13.05;73.04;100607.19;5033011;28;20030;-67
2022/11/07 00:09:18;;;;;;;8.60;4.07;;;;;;;12.98;72.53;100603.34;5032648;28;20116;-69
2022/11/07 00:11:44;;;;;;;6.60;3.13;;;;;;;13.02;72.60;100596.66;5033087;28;20061;-69
2022/11/07 00:14:14;;;;;;;6.93;3.40;;;;;;;13.05;72.92;100602.63;5031463;28;20034;-68
2022/11/07 00:16:40;;;;;;;5.40;3.15;;;;;;;13.00;73.12;100598.66;5031360;28;20444;-69
2022/11/07 00:19:05;;;;;;;9.43;3.30;;;;;;;13.00;73.32;100604.91;5032421;28;20104;-69
2022/11/07 00:21:31;;;;;;;8.32;3.50;;;;;;;13.05;73.12;100609.88;5032672;28;20156;-68
2022/11/07 00:23:57;;;;;;;7.55;2.92;;;;;;;13.14;72.44;100600.94;5032409;28;20052;-68
2022/11/07 00:26:23;;;;;;;5.35;3.10;;;;;;;12.89;73.00;100592.41;5032503;28;20025;-68
2022/11/07 00:28:48;;;;;;;6.78;3.53;;;;;;;13.11;72.95;100587.72;5030987;28;20033;-67
2022/11/07 00:31:15;;;;;;;6.25;3.75;;;;;;;13.06;73.35;100592.69;5032263;28;20120;-68
2022/11/07 00:33:41;;;;;;;7.68;3.83;;;;;;;13.01;73.42;100594.97;5031076;28;20029;-67
2022/11/07 00:36:08;;;;;;;6.65;3.67;;;;;;;13.03;72.98;100592.97;5032439;28;20048;-67
2022/11/07 00:38:34;;;;;;;5.82;4.38;;;;;;;12.81;73.93;100586.88;5030744;28;20040;-68
2022/11/07 00:41:03;;;;;;;6.38;4.72;;;;;;;12.78;73.75;100584.47;5030875;28;20386;-67
2022/11/07 00:43:28;;;;;;;7.75;4.53;;;;;;;12.67;73.69;100592.69;5032179;28;20375;-67
2022/11/07 00:45:54;;;;;;;8.93;4.50;;;;;;;12.54;74.12;100587.53;5032275;28;20117;-68
2022/11/07 00:48:20;;;;;;;8.88;4.75;;;;;;;12.67;74.17;100583.75;5032119;28;20038;-69
2022/11/07 00:50:46;;;;;;;11.63;5.30;;;;;;;12.57;74.51;100595.34;5032176;28;20038;-67
2022/11/07 00:53:12;;;;;;;7.43;3.85;;;;;;;12.74;74.06;100584.88;5031887;28;20025;-68
2022/11/07 00:55:38;;;;;;;9.65;4.65;;;;;;;12.72;74.25;100581.47;5032169;28;20439;-68
2022/11/07 00:58:03;;;;;;;5.80;4.18;;;;;;;12.80;73.92;100582.47;5031975;28;20041;-69
2022/11/07 01:00:29;;;;;;;10.00;4.43;;;;;;;12.88;73.69;100574.50;5031971;28;20029;-67
2022/11/07 01:05:39;;;;;;;11.87;6.03;;;;;;;12.78;73.65;100575.53;5032153;28;20068;-69
2022/11/07 01:08:05;;;;;;;8.68;5.80;;;;;;;12.77;73.97;100577.38;5032104;28;20286;-67
2022/11/07 01:10:30;;;;;;;9.38;5.05;;;;;;;12.50;74.49;100579.88;5031882;28;20060;-67
2022/11/07 01:12:56;;;;;;;10.32;5.60;;;;;;;12.40;74.57;100582.56;5031722;28;20029;-67
2022/11/07 01:15:22;;;;;;;8.65;4.78;;;;;;;12.38;75.03;100575.59;5030607;28;20078;-67
2022/11/07 01:17:47;;;;;;;9.88;5.20;;;;;;;12.66;74.15;100572.09;5030760;28;20405;-68
2022/11/07 01:20:13;;;;;;;12.70;5.70;;;;;;;12.87;73.99;100570.13;5031868;28;20025;-68
2022/11/07 01:22:38;;;;;;;8.75;4.93;;;;;;;12.67;73.75;100564.84;5031779;28;20041;-68
2022/11/07 01:25:04;;;;;;;10.32;4.88;;;;;;;12.86;73.91;100559.47;5031632;28;20025;-69
2022/11/07 01:27:30;;;;;;;8.70;4.85;;;;;;;12.90;73.88;100567.13;5030452;28;20401;-68
2022/11/07 01:29:56;;;;;;;11.02;4.88;;;;;;;12.73;73.76;100567.84;5030568;28;20030;-68
2022/11/07 01:32:21;;;;;;;8.75;4.78;;;;;;;12.69;74.13;100568.25;5031674;28;20474;-68
2022/11/07 01:34:47;;;;;;;9.82;5.15;;;;;;;12.74;73.76;100572.22;5030501;28;20034;-68
2022/11/07 01:37:12;;;;;;;9.25;5.65;;;;;;;12.71;74.63;100567.13;5031847;28;20030;-68
2022/11/07 01:39:38;;;;;;;11.93;6.57;;;;;;;12.74;73.91;100569.53;5031823;28;20021;-68
2022/11/07 01:42:03;;;;;;;9.60;6.45;;;;;;;12.58;74.34;100558.44;5031699;28;20426;-68
2022/11/07 01:44:35;;;;;;;8.55;5.82;;;;;;;12.46;74.80;100556.91;5030199;28;20029;-68
2022/11/07 01:47:01;;;;;;;14.00;7.20;;;;;;;12.44;75.17;100557.03;5031142;28;20035;-68
2022/11/07 01:49:33;;;;;;;12.35;6.60;;;;;;;12.37;75.33;100552.31;5030138;28;20396;-67
2022/11/07 01:52:02;;;;;;;19.40;6.30;;;;;;;12.32;75.20;100556.31;5035363;28;20025;-68
2022/11/07 01:54:43;;;;;;;13.45;6.80;;;;;;;12.65;73.99;100551.50;5034082;28;20116;-68
2022/11/07 01:57:21;;;;;;;14.10;6.22;;;;;;;12.51;74.94;100549.22;5035624;28;20544;-69
2022/11/07 01:59:49;;;;;;;22.23;6.68;;;;;;;12.51;75.04;100546.53;5035236;28;20045;-70
2022/11/07 02:02:15;;;;;;;9.20;5.32;;;;;;;12.55;74.82;100547.94;5034083;28;20105;-70
2022/11/07 02:04:41;;;;;;;11.98;6.45;;;;;;;12.54;74.96;100548.94;5035551;28;20493;-68
2022/11/07 02:07:18;;;;;;;11.00;4.88;;;;;;;12.26;75.76;100540.69;5033461;28;20030;-70
2022/11/07 02:09:45;;;;;;;12.05;6.70;;;;;;;12.41;74.62;100535.72;5035307;28;20030;-70
2022/11/07 02:12:11;;;;;;;13.13;6.50;;;;;;;12.22;75.91;100533.00;5034883;28;20526;-68
2022/11/07 02:14:37;;;;;;;11.27;6.38;;;;;;;12.21;76.13;100523.22;5035038;28;20053;-68
2022/11/07 02:17:03;;;;;;;10.93;5.40;;;;;;;12.16;76.37;100523.63;5034650;28;20095;-69
2022/11/07 02:19:35;;;;;;;13.25;6.35;;;;;;;12.34;75.73;100532.75;5034765;28;20040;-68
2022/11/07 02:22:13;;;;;;;8.50;5.63;;;;;;;12.30;75.27;100525.09;5034300;28;20393;-67
2022/11/07 02:24:39;;;;;;;11.35;5.85;;;;;;;12.03;75.91;100529.28;5033432;28;20187;-68
2022/11/07 02:27:11;;;;;;;9.23;6.65;;;;;;;11.90;76.52;100522.41;5034528;28;20029;-68
2022/11/07 02:29:39;;;;;;;11.60;6.43;;;;;;;12.18;76.20;100515.41;5034825;28;20029;-68
2022/11/07 02:32:09;;;;;;;8.60;4.63;;;;;;;12.27;75.77;100510.03;5033381;28;20029;-67
2022/11/07 02:34:35;;;;;;;10.10;5.05;;;;;;;12.30;75.05;100515.16;5034883;28;20115;-67
2022/11/07 02:37:05;;;;;;;14.70;4.85;;;;;;;12.17;75.98;100514.56;5034310;28;20068;-68
2022/11/07 02:39:30;;;;;;;8.63;5.05;;;;;;;12.28;75.52;100514.44;5034530;28;20390;-68
2022/11/07 02:41:58;;;;;;;11.18;5.05;;;;;;;12.30;75.58;100515.16;5034462;28;20497;-69
2022/11/07 02:44:24;;;;;;;7.65;5.22;;;;;;;12.34;75.51;100507.63;5034477;28;20025;-69
2022/11/07 02:46:50;;;;;;;5.35;4.35;;;;;;;12.31;75.19;100498.00;5032962;28;20112;-68
2022/11/07 02:49:16;;;;;;;7.93;5.63;;;;;;;12.57;74.69;100500.13;5033053;28;20453;-69
2022/11/07 02:51:41;;;;;;;8.63;4.30;;;;;;;12.50;74.97;100493.59;5032894;28;20481;-68
2022/11/07 02:54:07;;;;;;;7.70;4.63;;;;;;;12.56;74.77;100493.03;5032872;28;20132;-68
2022/11/07 02:56:32;;;;;;;7.82;5.22;;;;;;;12.36;74.92;100500.25;5034395;28;20036;-69
2022/11/07 02:58:58;;;;;;;9.32;4.60;;;;;;;12.45;75.60;100494.03;5033663;28;20035;-67
2022/11/07 03:01:24;;;;;;;7.47;4.80;;;;;;;12.51;75.11;100489.91;5033812;28;20029;-67
2022/11/07 03:03:50;;;;;;;8.35;4.88;;;;;;;12.64;74.64;100479.69;5034425;28;20397;-68
2022/11/07 03:06:20;;;;;;;9.18;4.57;;;;;;;12.64;74.38;100466.22;5033388;28;20026;-69
2022/11/07 03:08:45;;;;;;;8.50;4.70;;;;;;;12.67;74.89;100474.00;5032795;28;20120;-68
2022/11/07 03:11:12;;;;;;;11.20;5.13;;;;;;;12.85;74.29;100472.28;5033877;28;20116;-69
2022/11/07 03:13:38;;;;;;;7.68;4.10;;;;;;;12.85;74.26;100466.03;5032534;28;20095;-69
2022/11/07 03:16:09;;;;;;;7.97;3.85;;;;;;;12.87;74.14;100467.59;5032475;28;20029;-69
2022/11/07 03:18:36;;;;;;;7.53;4.78;;;;;;;12.97;74.33;100467.59;5034033;28;20041;-67
2022/11/07 03:21:02;;;;;;;5.78;4.10;;;;;;;12.95;74.12;100456.94;5032377;28;20528;-70
2022/11/07 03:23:28;;;;;;;8.35;4.30;;;;;;;12.90;73.92;100453.81;5033248;28;20049;-69
2022/11/07 03:25:54;;;;;;;5.82;4.18;;;;;;;13.02;74.19;100445.53;5033638;28;20115;-68
2022/11/07 03:28:20;;;;;;;7.07;4.35;;;;;;;13.05;74.45;100442.56;5033487;28;20030;-68
2022/11/07 03:30:45;;;;;;;6.45;4.40;;;;;;;13.05;73.94;100424.50;5033680;28;20026;-69
2022/11/07 03:33:11;;;;;;;10.15;4.82;;;;;;;13.09;74.37;100419.66;5033555;28;20476;-67
2022/11/07 03:35:36;;;;;;;7.38;4.05;;;;;;;13.05;74.59;100424.50;5033397;28;20034;-67
2022/11/07 03:38:02;;;;;;;9.15;4.70;;;;;;;13.06;74.70;100425.34;5032290;28;20029;-66
2022/11/07 03:40:28;;;;;;;7.78;4.45;;;;;;;12.94;75.02;100420.16;5033413;28;20025;-67
2022/11/07 03:42:53;;;;;;;7.18;4.65;;;;;;;12.92;74.88;100426.66;5033481;28;20490;-67
2022/11/07 03:45:19;;;;;;;9.60;4.78;;;;;;;12.99;75.26;100418.84;5031919;28;20026;-67
2022/11/07 03:47:45;;;;;;;8.48;4.60;;;;;;;13.04;75.41;100411.16;5033320;28;20055;-68
2022/11/07 03:50:17;;;;;;;7.30;3.83;;;;;;;12.94;75.19;100422.84;5033248;28;20040;-68
2022/11/07 03:52:43;;;;;;;5.40;3.67;;;;;;;12.85;76.05;100407.53;5033116;28;20034;-68
2022/11/07 03:55:10;;;;;;;8.52;4.53;;;;;;;13.03;75.83;100412.16;5032798;28;20045;-69
2022/11/07 03:57:37;;;;;;;8.05;4.00;;;;;;;13.08;75.53;100410.72;5032964;28;20030;-68
2022/11/07 04:00:04;;;;;;;6.90;4.25;;;;;;;13.06;75.97;100403.75;5033173;28;20037;-68
2022/11/07 04:02:30;;;;;;;6.22;4.50;;;;;;;13.07;75.56;100405.47;5033151;28;20033;-68
2022/11/07 04:04:56;;;;;;;4.45;3.70;;;;;;;13.06;75.18;100399.22;5032697;28;20025;-67
2022/11/07 04:07:21;;;;;;;11.05;4.38;;;;;;;13.02;75.83;100396.97;5031593;28;20037;-67
2022/11/07 04:09:47;;;;;;;8.98;5.82;;;;;;;13.14;75.27;100395.81;5031391;28;20065;-67
2022/11/07 04:17:40;;;;;;;9.38;3.70;;;;;;;13.21;75.19;100391.53;5032832;28;20044;-69
2022/11/07 04:20:07;;;;;;;3.50;3.15;;;;;;;13.32;75.34;100394.03;5032992;28;20025;-70
2022/11/07 04:22:33;;;;;;;5.32;2.92;;;;;;;13.18;75.43;100389.13;5032426;28;20081;-69
2022/11/07 04:24:58;;;;;;;7.30;3.80;;;;;;;13.31;75.63;100378.84;5032359;28;20111;-66
2022/11/07 04:27:42;;;;;;;4.30;3.08;;;;;;;13.20;76.10;100379.88;5032783;28;20025;-69
2022/11/07 04:30:19;;;;;;;6.50;3.58;;;;;;;13.11;75.61;100374.50;5032580;28;20037;-70
2022/11/07 04:32:46;;;;;;;5.45;3.38;;;;;;;13.24;75.50;100375.03;5031012;28;20076;-69
2022/11/07 04:35:11;;;;;;;4.90;3.67;;;;;;;13.43;75.17;100376.78;5030743;28;20541;-67
2022/11/07 04:37:37;;;;;;;9.75;3.88;;;;;;;13.41;75.12;100366.13;5030930;28;20163;-69
2022/11/07 04:40:03;;;;;;;7.43;4.07;;;;;;;13.46;75.72;100369.25;5030996;28;20029;-67
2022/11/07 04:42:28;;;;;;;5.95;3.78;;;;;;;13.53;75.24;100370.34;5032302;28;20091;-68
2022/11/07 04:44:54;;;;;;;5.65;4.50;;;;;;;13.44;75.97;100370.41;5032151;28;20036;-68
2022/11/07 04:47:19;;;;;;;6.18;3.85;;;;;;;13.47;75.49;100365.56;5031915;28;20033;-68
2022/11/07 04:49:45;;;;;;;6.80;4.70;;;;;;;13.62;75.20;100367.75;5032006;28;20033;-67
2022/11/07 04:52:11;;;;;;;5.38;3.10;;;;;;;13.37;75.64;100370.13;5032257;28;20033;-68
2022/11/07 04:54:37;;;;;;;5.85;3.30;;;;;;;13.59;75.68;100365.31;5031916;28;20033;-69
2022/11/07 04:57:02;;;;;;;5.38;3.55;;;;;;;13.68;75.51;100372.53;5030538;28;20406;-70
2022/11/07 04:59:28;;;;;;;5.85;3.58;;;;;;;13.86;74.67;100362.59;5030693;28;20401;-70
2022/11/07 05:01:54;;;;;;;5.07;3.00;;;;;;;13.81;75.25;100362.19;5030817;28;20080;-70
2022/11/07 05:04:19;;;;;;;11.98;3.40;;;;;;;13.84;75.27;100375.41;5032049;28;20029;-70
2022/11/07 05:06:45;;;;;;;6.43;3.45;;;;;;;13.88;75.00;100373.25;5032385;28;20033;-68
2022/11/07 05:09:16;;;;;;;7.43;4.38;;;;;;;13.64;75.08;100373.84;5031697;28;20029;-69
2022/11/07 05:11:46;;;;;;;7.85;3.65;;;;;;;13.83;75.11;100350.22;5031833;28;20052;-69
2022/11/07 05:14:12;;;;;;;7.43;3.30;;;;;;;13.86;74.50;100338.25;5031741;28;20029;-69
2022/11/07 05:16:41;;;;;;;7.05;3.63;;;;;;;14.19;73.19;100335.84;5031813;28;20446;-68
2022/11/07 05:19:06;;;;;;;9.98;3.92;;;;;;;13.99;73.63;100321.66;5030219;28;20030;-69
2022/11/07 05:21:32;;;;;;;9.10;4.30;;;;;;;13.77;74.22;100301.34;5032028;28;20397;-68
2022/11/07 05:23:57;;;;;;;10.25;3.85;;;;;;;13.87;73.56;100312.94;5030694;28;20085;-69
2022/11/07 05:26:23;;;;;;;11.50;4.43;;;;;;;14.04;72.83;100297.72;5035542;28;20113;-71
2022/11/07 05:28:48;;;;;;;11.95;4.50;;;;;;;14.17;72.85;100302.72;5034280;28;20068;-69
2022/11/07 05:31:16;;;;;;;8.65;4.20;;;;;;;14.12;73.17;100301.34;5035341;28;20037;-69
2022/11/07 05:33:42;;;;;;;11.95;5.28;;;;;;;14.22;72.42;100305.81;5035320;28;20018;-70
2022/11/07 05:36:10;;;;;;;10.00;4.72;;;;;;;14.13;72.84;100302.19;5035560;28;20037;-70
2022/11/07 05:38:36;;;;;;;7.47;4.20;;;;;;;14.28;72.40;100310.59;5035391;28;20125;-69
2022/11/07 05:41:03;;;;;;;9.75;5.25;;;;;;;14.28;72.33;100306.03;5033532;28;20188;-69
2022/11/07 05:43:28;;;;;;;11.23;5.45;;;;;;;14.17;71.81;100313.53;5035487;28;20025;-70
2022/11/07 05:45:58;;;;;;;10.30;4.70;;;;;;;14.06;72.75;100301.97;5035394;28;20116;-70
2022/11/07 05:48:24;;;;;;;12.50;5.07;;;;;;;14.16;72.62;100299.19;5034644;28;20053;-69
2022/11/07 05:50:50;;;;;;;8.70;5.13;;;;;;;13.98;72.29;100303.75;5033726;28;20455;-71
2022/11/07 05:53:15;;;;;;;6.95;4.25;;;;;;;13.84;72.97;100297.03;5034575;28;20144;-69
2022/11/07 05:55:41;;;;;;;11.65;5.97;;;;;;;14.18;72.45;100309.84;5035127;28;20401;-70
2022/11/07 05:58:08;;;;;;;8.63;3.22;;;;;;;13.83;73.03;100316.97;5034590;28;20091;-70
2022/11/07 06:00:34;;;;;;;12.55;4.50;;;;;;;13.78;73.28;100319.28;5034766;28;20026;-69
2022/11/07 06:03:00;;;;;;;9.73;3.97;;;;;;;13.89;73.17;100315.47;5033695;28;20083;-69
2022/11/07 06:05:27;;;;;;;12.43;5.65;;;;;;;14.11;71.71;100326.69;5034627;28;20076;-69
2022/11/07 06:07:53;;;;;;;9.70;4.45;;;;;;;13.92;72.33;100324.13;5034972;28;20029;-69
2022/11/07 06:10:19;;;;;;;10.73;5.22;;;;;;;13.90;72.06;100323.44;5033393;28;20060;-68
2022/11/07 06:12:44;;;;;;;8.38;5.25;;;;;;;13.96;71.19;100330.09;5034617;28;20113;-68
2022/11/07 06:15:12;;;;;;;8.35;4.72;;;;;;;13.90;71.44;100323.44;5032610;28;20029;-69
2022/11/07 06:17:37;;;;;;;12.02;5.35;;;;;;;14.02;70.67;100322.19;5034514;28;20027;-70
2022/11/07 06:20:03;;;;;;;9.60;4.88;;;;;;;13.89;71.49;100337.94;5034506;28;20030;-70
2022/11/07 06:22:30;;;;;;;11.27;6.72;;;;;;;13.95;71.21;100333.81;5032519;28;20049;-69
2022/11/07 06:24:56;;;;;;;14.75;5.97;;;;;;;13.94;70.53;100334.78;5034196;28;20048;-71
2022/11/07 06:27:22;;;;;;;16.10;6.30;;;;;;;14.12;70.20;100344.59;5034101;28;20108;-70
2022/11/07 06:29:47;;;;;;;16.30;8.13;;;;;;;13.93;70.81;100339.34;5032162;28;20438;-70
2022/11/07 06:32:13;;;;;;;18.45;8.55;;;;;;;14.05;70.29;100332.69;5033964;28;20075;-70
2022/11/07 06:34:38;;;;;;;11.93;5.88;;;;;;;13.84;70.42;100334.88;5034003;28;20029;-70
2022/11/07 06:37:04;;;;;;;16.38;6.13;;;;;;;13.90;70.38;100342.34;5031497;28;20033;-70
2022/11/07 06:39:30;;;;;;;18.10;8.38;;;;;;;14.00;69.88;100339.59;5033408;28;20048;-69
2022/11/07 06:41:55;;;;;;;11.50;4.38;;;;;;;13.74;70.29;100344.88;5032080;28;20049;-70
2022/11/07 06:44:21;;;;;;;12.50;5.72;;;;;;;14.01;69.90;100347.53;5033548;28;20085;-69
2022/11/07 06:46:46;;;;;;;13.75;5.35;;;;;;;14.13;69.25;100346.31;5033695;28;20493;-70
2022/11/07 06:49:14;;;;;;;10.30;4.60;;;;;;;13.89;70.11;100342.50;5031718;28;20068;-71
2022/11/07 06:51:40;;;;;;;10.63;5.20;;;;;;;14.14;69.54;100342.59;5032930;28;20079;-70
2022/11/07 06:54:05;;;;;;;11.75;5.35;;;;;;;14.06;69.10;100342.50;5033655;28;20033;-70
2022/11/07 06:56:31;;;;;;;13.98;5.90;;;;;;;14.27;68.93;100349.44;5033348;28;20466;-70
2022/11/07 06:58:57;;;;;;;7.95;4.90;;;;;;;13.96;68.92;100338.19;5031007;28;20059;-71
2022/11/07 07:01:22;;;;;;;15.57;5.30;;;;;;;14.06;69.59;100336.25;5033090;28;20030;-70
2022/11/07 07:03:48;;;;;;;11.55;5.78;;;;;;;14.24;68.84;100341.63;5032746;28;20083;-70
2022/11/07 07:06:15;;;;;;;12.00;4.55;;;;;;;14.18;68.93;100334.16;5033483;28;20390;-71
2022/11/07 07:08:42;;;;;;;11.32;5.07;;;;;;;14.08;68.36;100336.94;5033307;28;20167;-70
2022/11/07 07:11:11;;;;;;;18.73;6.35;;;;;;;14.07;68.64;100335.25;5031183;28;20029;-71
2022/11/07 07:13:37;;;;;;;12.23;5.07;;;;;;;14.32;68.23;100333.59;5031421;28;20069;-70
2022/11/07 07:16:03;;;;;;;10.60;4.85;;;;;;;14.55;67.53;100329.41;5032921;28;20046;-70
2022/11/07 07:18:29;;;;;;;8.95;3.92;;;;;;;14.28;67.68;100326.81;5031487;28;20040;-72
2022/11/07 07:21:05;;;;;;;12.52;5.43;;;;;;;14.18;68.32;100326.06;5032585;28;20044;-70
2022/11/07 07:23:33;;;;;;;9.88;5.40;;;;;;;14.31;67.76;100329.22;5032014;28;20050;-71
2022/11/07 07:26:03;;;;;;;8.07;4.03;;;;;;;14.31;67.42;100318.38;5032497;28;20029;-69
2022/11/07 07:28:28;;;;;;;7.63;4.18;;;;;;;14.43;66.97;100309.00;5031114;28;20060;-70
2022/11/07 07:31:16;;;;;;;10.55;4.88;;;;;;;14.39;67.20;100307.63;5032095;28;20440;-69
2022/11/07 07:33:43;;;;;;;10.35;4.85;;;;;;;14.36;67.50;100305.22;5032424;28;20030;-70
2022/11/07 07:36:10;;;;;;;10.57;5.00;;;;;;;14.21;67.37;100298.69;5032207;28;20188;-70
2022/11/07 07:38:36;;;;;;;10.27;4.85;;;;;;;14.14;67.92;100299.34;5032469;28;20029;-70
2022/11/07 07:41:03;;;;;;;8.70;4.07;;;;;;;14.18;67.61;100280.94;5031681;28;20037;-69
2022/11/07 07:43:28;;;;;;;11.38;4.22;;;;;;;14.22;67.30;100251.72;5031472;28;20033;-69
2022/11/07 07:46:05;;;;;;;13.48;4.47;;;;;;;13.92;68.25;100247.59;5032430;28;20505;-71
2022/11/07 07:48:31;;;;;;;8.13;4.00;;;;;;;13.80;68.91;100252.44;5031119;28;20427;-71
2022/11/07 07:50:57;;;;;;;6.55;4.30;;;;;;;13.99;68.38;100246.84;5030246;28;20042;-70
2022/11/07 07:53:23;;;;;;;11.10;4.20;;;;;;;13.75;68.62;100260.13;5063729;28;20029;-70
2022/11/07 07:55:49;;;;;;;12.07;4.97;;;;;;;13.98;68.37;100245.16;5031001;28;20063;-69
2022/11/07 07:58:15;;;;;;;10.15;3.70;;;;;;;13.74;68.89;100247.63;5031318;28;20087;-68
2022/11/07 08:00:41;;;;;;;9.77;3.97;;;;;;;13.87;68.75;100253.50;5031543;28;20069;-71
2022/11/07 08:03:11;;;;;;;9.60;4.45;;;;;;;14.16;67.71;100234.28;5031641;28;20033;-68
2022/11/07 08:05:38;;;;;;;7.25;4.15;;;;;;;13.94;68.07;100227.56;5032360;28;20025;-70
2022/11/07 08:08:05;;;;;;;11.63;4.07;;;;;;;14.06;67.74;100245.19;5031156;28;20036;-69
2022/11/07 08:10:32;;;;;;;13.90;4.75;;;;;;;14.25;67.38;100246.00;5030797;28;20547;-70
2022/11/07 08:12:57;;;;;;;9.65;4.03;;;;;;;14.17;67.84;100254.06;5030733;28;20036;-69
2022/11/07 08:15:23;;;;;;;10.00;4.32;;;;;;;14.10;67.69;100238.47;5030760;28;20120;-72
2022/11/07 08:17:49;;;;;;;10.73;4.18;;;;;;;13.98;68.13;100234.34;5030806;28;20030;-69
2022/11/07 08:20:23;;;;;;;8.35;3.97;;;;;;;13.96;68.62;100233.66;5032591;28;20047;-69
2022/11/07 08:22:49;;;;;;;10.57;4.87;;;;;;;14.14;67.57;100222.78;5031934;28;20065;-70
2022/11/07 08:25:15;;;;;;;13.70;4.55;;;;;;;14.14;67.55;100222.78;5030530;28;20049;-70
2022/11/07 08:27:41;;;;;;;11.13;4.88;;;;;;;14.02;68.11;100221.34;5031009;28;20152;-68
2022/11/07 08:30:07;;;;;;;11.18;4.40;;;;;;;14.32;66.81;100225.44;5030899;28;20401;-68
2022/11/07 08:32:33;;;;;;;7.03;3.47;;;;;;;14.17;66.79;100211.66;5030602;28;20450;-71
2022/11/07 08:34:58;;;;;;;9.40;4.07;;;;;;;14.08;67.07;100208.03;5031564;28;20075;-69
2022/11/07 08:37:24;;;;;;;7.25;3.63;;;;;;;14.14;66.90;100204.72;5031999;28;20132;-68
2022/11/07 08:39:50;;;;;;;11.65;4.20;;;;;;;14.34;66.14;100196.38;5031948;28;20033;-70
2022/11/07 08:42:15;;;;;;;11.02;4.35;;;;;;;14.14;66.53;100212.81;5031505;28;20072;-68
2022/11/07 08:44:41;;;;;;;9.52;3.65;;;;;;;13.94;67.49;100195.13;5030062;28;20083;-68
2022/11/07 08:47:07;;;;;;;8.57;4.28;;;;;;;14.09;67.08;100193.50;5029650;28;20030;-70
2022/11/07 08:49:33;;;;;;;9.13;3.95;;;;;;;14.07;66.24;100197.38;5031818;28;20037;-70
2022/11/07 08:52:00;;;;;;;9.98;4.85;;;;;;;13.95;67.30;100191.41;5030513;28;20029;-70
2022/11/07 08:54:27;;;;;;;9.18;4.18;;;;;;;13.88;66.96;100184.94;5030203;28;20075;-71
2022/11/07 08:56:53;;;;;;;5.72;3.25;;;;;;;13.93;66.69;100196.09;5031860;28;20154;-69
2022/11/07 08:59:18;;;;;;;7.47;5.20;;;;;;;14.11;66.37;100196.94;5030767;28;20037;-69
2022/11/07 09:01:44;;;;;;;13.00;4.75;;;;;;;14.40;65.89;100201.13;5030351;28;20401;-70
2022/11/07 09:04:10;;;;;;;10.25;4.97;;;;;;;14.27;65.41;100192.59;5030252;28;20132;-67
2022/11/07 09:06:35;;;;;;;13.15;5.15;;;;;;;14.34;65.45;100191.81;5031800;28;20030;-69
2022/11/07 09:09:01;;;;;;;9.82;4.80;;;;;;;14.67;65.04;100189.31;5031269;28;20039;-69
2022/11/07 09:11:27;;;;;;;10.63;4.30;;;;;;;14.67;64.56;100187.44;5029800;28;20029;-68
2022/11/07 09:13:54;;;;;;;10.80;4.95;;;;;;;14.88;64.06;100183.47;5029334;28;20033;-68
2022/11/07 09:16:21;;;;;;;6.63;2.50;;;;;;;14.65;63.94;100178.66;5031394;28;20083;-70
2022/11/07 09:18:49;;;;;;;8.60;3.17;;;;;;;14.71;64.26;100182.56;5030263;28;20025;-69
2022/11/07 09:21:15;;;;;;;9.85;4.32;;;;;;;14.50;64.06;100165.91;5031301;28;20049;-67
2022/11/07 09:23:41;;;;;;;10.82;4.78;;;;;;;14.98;63.26;100163.38;5031138;28;20509;-68
2022/11/07 09:26:07;;;;;;;9.50;3.75;;;;;;;15.18;63.05;100165.78;5031330;28;20044;-67
2022/11/07 09:28:33;;;;;;;9.73;5.00;;;;;;;15.68;61.49;100165.66;5031349;28;20068;-68
2022/11/07 09:30:59;;;;;;;11.40;5.25;;;;;;;15.23;62.52;100166.94;5031047;28;20038;-67
2022/11/07 09:33:25;;;;;;;10.93;4.88;;;;;;;15.32;61.81;100152.41;5031546;28;20121;-68
2022/11/07 09:35:51;;;;;;;9.55;4.75;;;;;;;14.97;63.05;100155.41;5030119;28;20116;-68
2022/11/07 09:38:17;;;;;;;7.05;4.57;;;;;;;15.00;63.16;100160.50;5030024;28;20025;-67
2022/11/07 09:40:56;;;;;;;9.68;4.38;;;;;;;15.01;62.85;100157.63;5029624;28;20042;-68
2022/11/07 09:43:38;;;;;;;10.57;4.75;;;;;;;15.01;62.87;100157.63;5031035;28;20486;-68
2022/11/07 09:46:25;;;;;;;8.82;5.35;;;;;;;15.05;62.40;100158.97;5031204;28;20034;-68
2022/11/07 09:49:09;;;;;;;8.30;4.13;;;;;;;14.82;63.55;100167.88;5029376;28;20029;-67
2022/11/07 09:51:38;;;;;;;8.18;4.88;;;;;;;15.01;63.22;100163.03;5030708;28;20397;-68
2022/11/07 09:54:10;;;;;;;6.60;4.47;;;;;;;14.51;64.29;100149.50;5030894;28;20509;-69
2022/11/07 09:56:36;;;;;;;9.85;4.95;;;;;;;14.90;63.61;100154.38;5029550;28;20116;-67
2022/11/07 09:59:06;;;;;;;8.50;5.00;;;;;;;15.04;63.43;100151.88;5030803;28;20117;-67
2022/11/07 10:01:32;;;;;;;12.98;6.03;;;;;;;14.94;62.85;100151.16;5030256;28;20037;-68
2022/11/07 10:03:58;;;;;;;10.65;6.22;;;;;;;14.80;63.73;100143.69;5028667;28;20029;-71
2022/11/07 10:06:37;;;;;;;11.68;4.95;;;;;;;14.75;64.26;100144.16;5030329;28;20477;-69
2022/11/07 10:09:17;;;;;;;10.57;4.90;;;;;;;15.07;63.34;100145.25;5028655;28;20057;-68
2022/11/07 10:12:17;;;;;;;13.48;5.57;;;;;;;14.85;63.79;100151.31;5032727;28;20057;-68
2022/11/07 10:15:15;;;;;;;7.10;5.30;;;;;;;14.90;64.16;100143.53;5032650;28;20375;-68
2022/11/07 10:18:10;;;;;;;11.02;4.20;;;;;;;14.92;63.26;100138.81;5030909;28;20049;-69
2022/11/07 10:21:01;;;;;;;12.90;5.45;;;;;;;14.98;62.88;100140.88;5029363;28;20098;-69
2022/11/07 10:23:39;;;;;;;10.23;5.55;;;;;;;15.27;62.71;100135.81;5033892;28;20501;-67
2022/11/07 10:26:11;;;;;;;10.75;5.10;;;;;;;14.86;63.60;100128.66;5032455;28;20120;-68
2022/11/07 10:28:46;;;;;;;9.25;4.68;;;;;;;15.02;63.17;100134.09;5032297;28;20041;-70
2022/11/07 10:31:14;;;;;;;9.05;4.65;;;;;;;14.65;64.62;100129.09;5033108;28;20037;-70
2022/11/07 10:34:12;;;;;;;11.63;5.18;;;;;;;14.77;64.24;100124.22;5033306;28;20359;-68
2022/11/07 10:36:37;;;;;;;11.20;3.95;;;;;;;14.58;63.57;100126.19;5028161;28;20485;-68
2022/11/07 10:39:13;;;;;;;11.48;3.58;;;;;;;14.69;63.71;100116.94;5033012;28;20025;-69
2022/11/07 10:41:42;;;;;;;9.57;5.13;;;;;;;14.86;63.25;100123.25;5032368;28;20128;-68
2022/11/07 10:44:20;;;;;;;8.38;4.72;;;;;;;14.77;63.73;100130.47;5032102;28;20033;-69
2022/11/07 10:46:46;;;;;;;11.73;4.65;;;;;;;14.83;63.60;100126.28;5031652;28;20025;-68
2022/11/07 10:49:41;;;;;;;14.18;5.45;;;;;;;14.85;63.78;100124.25;5031655;28;20037;-69
2022/11/07 10:52:17;;;;;;;8.18;4.57;;;;;;;14.92;63.36;100118.00;5028803;28;20496;-69
2022/11/07 10:54:43;;;;;;;13.48;7.30;;;;;;;14.88;63.98;100124.75;5033384;28;20104;-70
2022/11/07 10:57:17;;;;;;;13.20;4.90;;;;;;;14.91;63.89;100123.56;5031838;28;20523;-69
2022/11/07 10:59:49;;;;;;;9.43;4.37;;;;;;;14.77;64.20;100116.09;5033929;28;20433;-71
2022/11/07 11:02:23;;;;;;;9.30;4.90;;;;;;;14.69;64.87;100109.66;5031891;28;20022;-71
2022/11/07 11:05:01;;;;;;;15.20;9.77;;;;;;;15.31;63.17;100117.38;5031768;28;20040;-68
2022/11/07 11:07:36;;;;;;;12.50;4.55;;;;;;;14.95;63.88;100114.13;5031947;28;20037;-70
2022/11/07 11:10:03;;;;;;;7.35;4.68;;;;;;;15.00;64.07;100117.19;5032984;28;20041;-70
2022/11/07 11:12:31;;;;;;;7.38;3.70;;;;;;;14.96;63.31;100105.00;5032768;28;20033;-71
2022/11/07 11:15:18;;;;;;;11.25;5.13;;;;;;;15.03;64.01;100106.84;5031001;28;20069;-69
2022/11/07 11:17:45;;;;;;;17.27;10.88;;;;;;;15.19;63.79;100106.03;5031753;28;20037;-69
2022/11/07 11:20:37;;;;;;;7.25;3.80;;;;;;;14.65;64.19;100108.31;5030650;28;20033;-70
2022/11/07 11:23:12;;;;;;;7.22;3.65;;;;;;;14.65;64.40;100104.75;5031928;28;20037;-70
2022/11/07 11:25:46;;;;;;;8.60;4.60;;;;;;;14.67;64.90;100103.56;5033045;28;20132;-69
2022/11/07 11:28:23;;;;;;;9.18;3.85;;;;;;;14.57;65.19;100105.56;5033375;28;20124;-70
2022/11/07 11:31:12;;;;;;;8.32;4.63;;;;;;;14.77;64.45;100105.28;5032419;28;20065;-69
2022/11/07 11:33:43;;;;;;;5.88;3.63;;;;;;;14.53;64.28;100087.13;5000397;28;20119;-69
2022/11/07 11:36:22;;;;;;;8.40;4.78;;;;;;;14.66;64.45;100093.78;5032423;28;20025;-69